Time;durP1;ratioP1;P1;durP2;ratioP2;P2;SDS_P1;SDS_P2;PMS_P1;PMS_P2;Temp;Humidity;BMP_temperature;BMP_pressure;BME280_temperature;BME280_humidity;BME280_pressure;Samples;Min_cycle;Max_cycle;Signal;HPM_P1;HPM_P2
2022/03/04 00:01:29;;;;;;;4.07;2.80;;;17.80;28.00;20.30;93651.00;;;;10272169;28;46434;-59
2022/03/04 00:06:29;;;;;;;5.38;2.50;;;17.80;28.00;20.30;93644.00;;;;10286763;28;45389;-60
2022/03/04 00:11:30;;;;;;;5.25;2.80;;;17.80;28.00;20.30;93646.00;;;;10287330;28;45389;-59
2022/03/04 00:16:31;;;;;;;3.55;2.28;;;17.80;28.00;20.30;93641.00;;;;10277074;28;46820;-60
2022/03/04 00:21:34;;;;;;;4.13;2.58;;;17.80;27.90;20.30;93639.00;;;;10278388;28;45447;-60
2022/03/04 00:26:36;;;;;;;3.22;2.30;;;17.80;27.90;20.30;93648.00;;;;10277624;28;45203;-60
2022/03/04 00:31:38;;;;;;;3.30;2.50;;;17.80;27.90;20.30;93643.00;;;;10276701;28;45599;-61
2022/03/04 00:36:40;;;;;;;3.40;2.20;;;17.80;27.90;20.30;93648.00;;;;10277513;28;46428;-61
2022/03/04 00:41:41;;;;;;;3.25;2.10;;;17.80;27.80;20.30;93651.00;;;;10292518;28;45458;-60
2022/03/04 00:46:42;;;;;;;2.92;1.98;;;17.80;27.90;20.30;93652.00;;;;10291906;28;45530;-61
2022/03/04 00:51:43;;;;;;;2.70;1.90;;;17.80;27.80;20.30;93646.00;;;;10291431;28;45258;-60
2022/03/04 00:56:44;;;;;;;2.80;1.90;;;17.80;27.80;20.20;93636.00;;;;10274907;28;47805;-60
2022/03/04 01:01:44;;;;;;;2.40;1.80;;;17.80;27.80;20.30;93653.00;;;;10276454;28;45175;-60
2022/03/04 01:06:45;;;;;;;2.15;1.58;;;17.80;27.80;20.20;93643.00;;;;10276521;28;45409;-61
2022/03/04 01:11:46;;;;;;;3.17;1.90;;;17.80;27.80;20.20;93643.00;;;;10292444;28;45146;-59
2022/03/04 01:16:47;;;;;;;3.38;2.08;;;17.70;27.60;20.20;93641.00;;;;10275056;28;47233;-60
2022/03/04 01:21:48;;;;;;;3.15;2.08;;;17.70;27.70;20.20;93641.00;;;;10275707;28;48244;-60
2022/03/04 01:26:48;;;;;;;2.47;1.77;;;17.80;27.70;20.20;93632.00;;;;10275396;28;46153;-59
2022/03/04 01:31:49;;;;;;;3.63;2.17;;;17.70;27.60;20.20;93643.00;;;;10275887;28;45452;-59
2022/03/04 01:36:50;;;;;;;3.30;1.83;;;17.70;27.60;20.20;93637.00;;;;10386941;22;46137;-62
2022/03/04 01:41:50;;;;;;;3.45;1.98;;;17.80;27.60;20.20;93634.00;;;;10356293;28;46272;-63
2022/03/04 01:46:51;;;;;;;2.65;1.80;;;17.70;27.60;20.20;93637.00;;;;10333292;28;47136;-62
2022/03/04 01:51:52;;;;;;;2.30;1.65;;;17.70;27.50;20.20;93633.00;;;;10313750;28;46946;-61
2022/03/04 01:56:52;;;;;;;2.58;1.80;;;17.70;27.60;20.20;93621.00;;;;10314935;28;45391;-61
2022/03/04 02:01:54;;;;;;;2.65;1.90;;;17.70;27.60;20.20;93618.00;;;;10309486;28;46338;-62
2022/03/04 02:06:54;;;;;;;2.75;1.83;;;17.70;27.50;20.20;93612.00;;;;10327713;28;45603;-62
2022/03/04 02:11:56;;;;;;;2.20;1.60;;;17.70;27.50;20.20;93611.00;;;;10314618;28;46453;-62
2022/03/04 02:16:57;;;;;;;3.10;1.90;;;17.70;27.50;20.20;93608.00;;;;10329634;28;46145;-61
2022/03/04 02:22:01;;;;;;;2.33;1.67;;;17.70;27.50;20.20;93611.00;;;;10329816;28;45777;-62
2022/03/04 02:27:03;;;;;;;2.00;1.55;;;17.70;27.40;20.20;93618.00;;;;10312385;28;48073;-62
2022/03/04 02:32:05;;;;;;;2.67;1.80;;;17.70;27.40;20.20;93617.00;;;;10313929;28;45541;-61
2022/03/04 02:37:06;;;;;;;2.90;1.98;;;17.70;27.40;20.20;93609.00;;;;10327604;28;46166;-61
2022/03/04 02:42:07;;;;;;;3.42;1.85;;;17.70;27.50;20.20;93621.00;;;;10329055;28;45261;-61
2022/03/04 02:47:08;;;;;;;2.35;1.67;;;17.70;27.40;20.10;93597.00;;;;10313426;28;45372;-61
2022/03/04 02:52:08;;;;;;;2.50;1.65;;;17.70;27.40;20.20;93608.00;;;;10314448;28;45392;-61
2022/03/04 02:57:09;;;;;;;2.45;1.77;;;17.70;27.30;20.10;93594.00;;;;10312615;28;45331;-61
2022/03/04 03:02:10;;;;;;;2.20;1.70;;;17.70;27.40;20.10;93614.00;;;;10328390;28;45511;-62
2022/03/04 03:07:10;;;;;;;3.13;2.00;;;17.70;27.30;20.10;93619.00;;;;10313080;28;45188;-61
2022/03/04 03:12:11;;;;;;;3.50;2.10;;;17.60;27.30;20.10;93608.00;;;;10327984;28;45319;-61
2022/03/04 03:17:12;;;;;;;2.95;1.98;;;17.70;27.20;20.10;93591.00;;;;10310915;28;48157;-62
2022/03/04 03:22:14;;;;;;;2.55;2.00;;;17.70;27.20;20.10;93596.00;;;;10327786;28;45397;-62
2022/03/04 03:27:16;;;;;;;2.97;1.73;;;17.70;27.20;20.10;93612.00;;;;10327070;28;46231;-62
2022/03/04 03:32:16;;;;;;;2.72;1.77;;;17.70;27.30;20.10;93610.00;;;;10312108;28;45998;-62
2022/03/04 03:37:17;;;;;;;3.47;2.10;;;17.60;27.20;20.10;93625.00;;;;10326697;28;45500;-61
2022/03/04 03:42:18;;;;;;;2.80;2.00;;;17.60;27.20;20.10;93625.00;;;;10311798;28;46417;-61
2022/03/04 03:47:19;;;;;;;3.15;1.80;;;17.70;27.20;20.10;93621.00;;;;10313091;28;46985;-62
2022/03/04 03:52:19;;;;;;;2.92;1.95;;;17.60;27.10;20.10;93632.00;;;;10334227;28;46684;-61
2022/03/04 03:57:20;;;;;;;3.05;1.75;;;17.60;27.10;20.10;93612.00;;;;10317608;28;48300;-61
2022/03/04 04:02:21;;;;;;;2.92;2.00;;;17.60;27.10;20.10;93626.00;;;;10334476;28;45302;-61
2022/03/04 04:07:21;;;;;;;3.15;2.17;;;17.70;27.20;20.10;93620.00;;;;10334065;28;45630;-62
2022/03/04 04:12:22;;;;;;;3.45;2.17;;;17.60;27.00;20.10;93614.00;;;;10316921;28;48374;-61
2022/03/04 04:17:23;;;;;;;2.97;1.88;;;17.60;27.00;20.10;93623.00;;;;10333440;28;45534;-61
2022/03/04 04:22:23;;;;;;;4.13;2.50;;;17.60;27.50;20.10;93618.00;;;;10318284;28;45254;-62
2022/03/04 04:27:24;;;;;;;2.92;2.10;;;17.60;26.90;20.10;93619.00;;;;10316458;28;48055;-61
2022/03/04 04:32:25;;;;;;;3.20;2.05;;;17.60;27.00;20.10;93616.00;;;;10332569;28;45385;-61
2022/03/04 04:37:26;;;;;;;2.47;1.67;;;17.60;27.00;20.10;93622.00;;;;10315717;28;48393;-62
2022/03/04 04:42:26;;;;;;;2.97;1.73;;;17.60;27.00;20.10;93602.00;;;;10315827;28;48064;-61
2022/03/04 04:47:27;;;;;;;3.05;2.03;;;17.60;26.90;20.10;93614.00;;;;10332502;28;45248;-62
2022/03/04 04:52:28;;;;;;;3.03;2.00;;;17.60;26.90;20.10;93601.00;;;;10332338;28;46486;-61
2022/03/04 04:57:28;;;;;;;3.10;2.10;;;17.60;26.80;20.10;93620.00;;;;10331446;28;46077;-63
2022/03/04 05:02:29;;;;;;;4.00;2.22;;;17.60;26.70;20.10;93603.00;;;;10315179;28;47225;-62
2022/03/04 05:07:30;;;;;;;3.00;2.20;;;17.60;26.70;20.10;93627.00;;;;10331852;28;45475;-62
2022/03/04 05:12:31;;;;;;;2.95;1.88;;;17.60;26.90;20.10;93626.00;;;;10331611;28;45393;-62
2022/03/04 05:17:31;;;;;;;2.78;1.88;;;17.60;26.90;20.10;93640.00;;;;10331221;28;45431;-62
2022/03/04 05:22:32;;;;;;;2.50;1.70;;;17.60;27.00;20.10;93632.00;;;;10331685;28;45257;-62
2022/03/04 05:27:33;;;;;;;2.90;1.83;;;17.60;27.00;20.20;93635.00;;;;10331058;28;45225;-61
2022/03/04 05:32:34;;;;;;;2.55;1.77;;;17.70;27.00;20.20;93641.00;;;;10315457;28;46800;-63
2022/03/04 05:37:34;;;;;;;3.40;2.08;;;17.70;27.00;20.20;93631.00;;;;10315512;28;45524;-62
2022/03/04 05:42:35;;;;;;;3.08;1.90;;;17.70;26.90;20.20;93628.00;;;;10330462;28;45196;-62
2022/03/04 05:47:36;;;;;;;3.00;2.15;;;17.80;27.00;20.20;93647.00;;;;10330720;28;45540;-62
2022/03/04 05:52:36;;;;;;;2.40;1.80;;;17.80;26.90;20.20;93657.00;;;;10330337;28;46429;-62
2022/03/04 05:57:37;;;;;;;2.83;1.80;;;17.80;26.80;20.20;93664.00;;;;10313374;28;47461;-61
2022/03/04 06:02:37;;;;;;;2.75;2.00;;;17.80;26.80;20.20;93659.00;;;;10314697;28;45193;-61
2022/03/04 06:07:38;;;;;;;2.83;1.90;;;17.80;26.70;20.20;93674.00;;;;10329785;28;46578;-61
2022/03/04 06:12:39;;;;;;;3.03;1.85;;;17.80;26.60;20.20;93658.00;;;;10329258;28;45128;-62
2022/03/04 06:17:49;;;;;;;2.75;1.83;;;17.80;26.70;20.20;93687.00;;;;10329205;28;45190;-62
2022/03/04 06:22:50;;;;;;;3.75;2.00;;;17.80;26.60;20.20;93676.00;;;;10329291;28;45400;-62
2022/03/04 06:27:55;;;;;;;2.50;2.00;;;17.70;26.60;20.20;93684.00;;;;10329543;28;45346;-61
2022/03/04 06:38:17;;;;;;;2.75;1.92;;;17.80;26.70;20.20;93681.00;;;;10312775;28;45132;-61
2022/03/04 06:43:19;;;;;;;2.60;1.92;;;17.80;26.70;20.20;93697.00;;;;10312093;28;46558;-63
2022/03/04 06:48:21;;;;;;;3.30;1.90;;;17.80;26.70;20.30;93691.00;;;;10328715;28;45174;-61
2022/03/04 06:53:23;;;;;;;2.80;1.80;;;17.80;26.70;20.30;93699.00;;;;10328531;28;45265;-62
2022/03/04 06:58:25;;;;;;;2.63;1.75;;;17.80;26.70;20.30;93708.00;;;;10328394;28;45876;-61
2022/03/04 07:03:25;;;;;;;2.92;1.90;;;17.80;26.60;20.30;93717.00;;;;10323034;28;46470;-61
2022/03/04 07:08:26;;;;;;;2.22;1.65;;;17.80;26.60;20.30;93716.00;;;;10310613;28;46098;-61
2022/03/04 07:13:27;;;;;;;2.70;1.75;;;17.80;26.60;20.30;93698.00;;;;10327966;28;45268;-63
2022/03/04 07:18:31;;;;;;;2.47;1.58;;;17.80;26.50;20.30;93726.00;;;;10311260;28;46328;-61
2022/03/04 07:23:31;;;;;;;3.85;1.90;;;17.80;26.50;20.30;93733.00;;;;10305155;28;47004;-62
2022/03/04 07:28:32;;;;;;;3.67;2.28;;;17.80;26.30;20.30;93731.00;;;;10311477;28;46151;-61
2022/03/04 07:33:33;;;;;;;2.97;1.83;;;17.80;26.30;20.30;93733.00;;;;10327639;28;46654;-61
2022/03/04 07:38:34;;;;;;;2.22;1.80;;;17.80;26.20;20.30;93732.00;;;;10326930;28;46077;-61
2022/03/04 07:43:35;;;;;;;2.25;1.45;;;17.90;26.30;20.30;93753.00;;;;10312186;28;45130;-61
2022/03/04 07:48:35;;;;;;;2.20;1.55;;;17.80;26.30;20.30;93739.00;;;;10326933;28;45338;-62
2022/03/04 07:53:36;;;;;;;3.15;1.52;;;17.80;26.30;20.30;93742.00;;;;10317999;28;45212;-60
2022/03/04 07:58:37;;;;;;;2.70;1.95;;;17.90;26.10;20.30;93756.00;;;;10269974;28;45144;-61
2022/03/04 08:03:38;;;;;;;3.13;1.85;;;17.90;26.20;20.30;93734.00;;;;10269660;28;48365;-62
2022/03/04 08:08:39;;;;;;;3.65;1.52;;;17.90;26.20;20.30;93751.00;;;;10271175;28;45417;-62
2022/03/04 08:13:40;;;;;;;3.72;1.70;;;17.90;26.20;20.30;93756.00;;;;10269350;28;45358;-62
2022/03/04 08:18:40;;;;;;;5.95;2.22;;;17.90;26.20;20.30;93755.00;;;;10269412;28;45570;-61
2022/03/04 08:23:41;;;;;;;3.03;1.60;;;17.90;26.20;20.30;93750.00;;;;10285697;28;47277;-61
2022/03/04 08:28:42;;;;;;;2.35;1.48;;;17.90;26.10;20.30;93748.00;;;;10268967;28;45970;-61
2022/03/04 08:33:45;;;;;;;3.83;1.75;;;17.90;26.10;20.30;93755.00;;;;10270718;28;47240;-61
2022/03/04 08:38:47;;;;;;;3.05;1.73;;;17.90;26.20;20.30;93757.00;;;;10275061;28;45530;-63
2022/03/04 08:43:50;;;;;;;3.40;1.80;;;17.90;26.00;20.30;93764.00;;;;10276491;28;46972;-62
2022/03/04 08:48:51;;;;;;;3.80;1.48;;;17.90;26.20;20.30;93756.00;;;;10276043;28;45481;-61
2022/03/04 08:53:53;;;;;;;3.15;1.35;;;17.80;26.30;20.30;93770.00;;;;10276413;28;46570;-62
2022/03/04 08:58:54;;;;;;;3.78;1.73;;;17.90;26.40;20.30;93769.00;;;;10275888;28;46321;-63
2022/03/04 09:03:56;;;;;;;3.88;2.22;;;17.90;26.40;20.30;93773.00;;;;10275781;28;47859;-61
2022/03/04 09:08:56;;;;;;;2.05;1.42;;;17.90;26.40;20.30;93760.00;;;;10275816;28;45185;-62
2022/03/04 09:13:57;;;;;;;2.28;1.50;;;17.80;26.40;20.30;93761.00;;;;10276901;28;45643;-62
2022/03/04 09:18:58;;;;;;;2.90;1.60;;;17.80;26.40;20.30;93771.00;;;;10291042;28;47174;-61
2022/03/04 09:23:59;;;;;;;3.60;2.08;;;17.90;26.50;20.30;93776.00;;;;10274959;28;46814;-61
2022/03/04 09:29:00;;;;;;;2.55;1.70;;;17.90;26.40;20.30;93773.00;;;;10276265;28;45596;-62
2022/03/04 09:34:00;;;;;;;4.15;2.08;;;17.90;26.40;20.30;93782.00;;;;10274664;28;45411;-61
2022/03/04 09:39:01;;;;;;;2.97;1.83;;;17.90;26.40;20.30;93771.00;;;;10275637;28;45391;-61
2022/03/04 09:44:02;;;;;;;2.53;1.85;;;17.90;26.40;20.30;93767.00;;;;10275787;28;45486;-62
2022/03/04 09:49:03;;;;;;;3.80;2.10;;;17.90;26.90;20.30;93788.00;;;;10273795;28;46468;-61
2022/03/04 09:54:04;;;;;;;3.65;2.15;;;17.90;26.30;20.30;93776.00;;;;10273753;28;45558;-61
2022/03/04 09:59:05;;;;;;;4.85;2.17;;;17.90;26.30;20.40;93788.00;;;;10272181;28;45435;-61
2022/03/04 10:04:06;;;;;;;3.90;2.22;;;17.90;26.30;20.30;93789.00;;;;10273126;28;45267;-61
2022/03/04 10:09:07;;;;;;;4.25;2.60;;;17.90;26.30;20.30;93790.00;;;;10274882;28;45527;-62
2022/03/04 10:14:13;;;;;;;4.35;2.30;;;17.90;26.40;20.30;93785.00;;;;10273871;28;45347;-61
2022/03/04 10:19:16;;;;;;;3.60;2.30;;;17.90;26.40;20.40;93792.00;;;;10272366;28;46604;-61
2022/03/04 10:24:38;;;;;;;4.03;2.30;;;17.90;26.40;20.40;93786.00;;;;10273286;28;45486;-61
2022/03/04 10:29:44;;;;;;;3.97;2.30;;;17.90;26.40;20.40;93788.00;;;;10288965;28;45603;-61
2022/03/04 10:34:59;;;;;;;3.88;2.15;;;17.90;26.40;20.40;93795.00;;;;10272717;28;45412;-62
2022/03/04 10:40:15;;;;;;;3.40;2.10;;;17.90;26.40;20.40;93784.00;;;;10287608;28;47938;-62
2022/03/04 10:45:22;;;;;;;5.60;2.70;;;17.90;26.40;20.40;93790.00;;;;10272886;28;48151;-62
2022/03/04 10:50:31;;;;;;;3.55;2.50;;;17.90;26.40;20.40;93781.00;;;;10272508;28;45182;-62
2022/03/04 10:55:44;;;;;;;4.10;2.40;;;17.90;26.40;20.40;93799.00;;;;10287208;28;47438;-61
2022/03/04 11:01:22;;;;;;;3.67;2.30;;;18.00;26.50;20.40;93791.00;;;;10272939;28;46902;-61
2022/03/04 11:06:22;;;;;;;4.47;2.30;;;18.00;26.50;20.40;93782.00;;;;10252952;28;46562;-62
2022/03/04 11:11:26;;;;;;;3.85;2.40;;;18.00;26.60;20.40;93765.00;;;;10338439;28;45227;-61
2022/03/04 11:16:27;;;;;;;4.55;2.70;;;18.00;26.60;20.40;93781.00;;;;10352944;28;45416;-63
2022/03/04 11:21:29;;;;;;;6.35;2.80;;;18.00;26.60;20.40;93776.00;;;;10353095;28;46331;-62
2022/03/04 11:26:31;;;;;;;7.28;3.40;;;18.00;26.60;20.50;93777.00;;;;10367957;28;47268;-63
2022/03/04 11:31:32;;;;;;;8.18;3.80;;;18.00;26.60;20.50;93761.00;;;;10335201;28;47163;-63
2022/03/04 11:36:36;;;;;;;10.38;4.63;;;18.00;26.60;20.50;93763.00;;;;10352746;28;45505;-63
2022/03/04 11:42:03;;;;;;;10.95;4.53;;;18.00;26.60;20.50;93750.00;;;;10335303;28;47629;-63
2022/03/04 11:47:08;;;;;;;10.63;4.50;;;18.00;26.60;20.50;93757.00;;;;10345244;28;45646;-62
2022/03/04 11:52:11;;;;;;;8.70;4.45;;;18.00;26.60;20.50;93758.00;;;;10351440;28;46372;-62
2022/03/04 11:57:29;;;;;;;9.02;4.20;;;18.00;26.60;20.50;93736.00;;;;10352013;28;45351;-62
2022/03/04 12:02:35;;;;;;;9.23;4.30;;;18.10;26.60;20.50;93747.00;;;;10352886;28;45579;-61
2022/03/04 12:07:35;;;;;;;8.77;4.38;;;18.10;26.60;20.50;93741.00;;;;10350042;28;45577;-62
2022/03/04 12:12:37;;;;;;;9.05;4.32;;;18.10;26.60;20.50;93725.00;;;;10325000;28;46880;-61
2022/03/04 12:17:58;;;;;;;9.73;3.88;;;18.10;26.60;20.60;93723.00;;;;10342004;28;46958;-62
2022/03/04 12:23:14;;;;;;;8.88;3.72;;;18.10;26.60;20.60;93719.00;;;;10323574;28;45536;-63
2022/03/04 12:28:32;;;;;;;8.10;3.53;;;18.10;26.60;20.60;93726.00;;;;10331813;28;45428;-62
2022/03/04 12:33:43;;;;;;;7.43;3.40;;;18.10;26.50;20.60;93722.00;;;;10346113;28;46891;-63
2022/03/04 12:38:47;;;;;;;7.50;3.42;;;18.10;26.50;20.60;93717.00;;;;10345598;28;47147;-61
2022/03/04 12:44:09;;;;;;;6.90;3.00;;;18.10;26.40;20.60;93719.00;;;;10365022;28;45482;-60
2022/03/04 12:49:11;;;;;;;7.53;3.05;;;18.10;26.40;20.60;93716.00;;;;10357264;28;47357;-62
2022/03/04 12:54:22;;;;;;;6.35;2.83;;;18.10;26.40;20.60;93712.00;;;;10351954;28;45511;-61
2022/03/04 12:59:26;;;;;;;5.15;2.80;;;18.10;26.30;20.60;93701.00;;;;10354934;28;45239;-61
2022/03/04 13:04:27;;;;;;;7.15;3.00;;;18.20;26.30;20.60;93698.00;;;;10336229;28;45307;-61
2022/03/04 13:09:29;;;;;;;5.63;3.20;;;18.10;26.30;20.60;93705.00;;;;10331336;28;48595;-60
2022/03/04 13:14:32;;;;;;;4.90;2.80;;;18.20;26.30;20.60;93689.00;;;;10331637;28;47408;-60
2022/03/04 13:19:37;;;;;;;7.30;2.90;;;18.10;26.20;20.70;93705.00;;;;10314296;28;47053;-61
2022/03/04 13:24:43;;;;;;;7.13;2.50;;;18.20;26.30;20.70;93692.00;;;;10330869;28;46095;-61
2022/03/04 13:29:57;;;;;;;5.80;2.67;;;18.20;26.20;20.70;93690.00;;;;10330345;28;46022;-61
2022/03/04 13:35:02;;;;;;;6.75;2.47;;;18.20;26.20;20.70;93685.00;;;;10329602;28;47892;-62
2022/03/04 13:40:14;;;;;;;5.32;2.60;;;18.20;26.10;20.70;93680.00;;;;10330912;28;46394;-62
2022/03/04 13:45:46;;;;;;;4.55;2.28;;;18.20;26.10;20.70;93675.00;;;;10314537;28;45240;-62
2022/03/04 13:50:47;;;;;;;4.60;2.40;;;18.20;26.00;20.70;93678.00;;;;10315627;28;46355;-62
2022/03/04 13:55:51;;;;;;;5.47;2.05;;;18.20;26.00;20.70;93675.00;;;;10330203;28;45460;-61
2022/03/04 14:00:55;;;;;;;5.32;2.40;;;18.20;26.00;20.70;93681.00;;;;10330485;28;45370;-61
2022/03/04 14:06:05;;;;;;;4.03;1.95;;;18.20;26.00;20.70;93660.00;;;;10329553;28;45330;-61
2022/03/04 14:11:11;;;;;;;3.65;2.05;;;18.20;26.00;20.70;93664.00;;;;10329644;28;46067;-61
2022/03/04 14:16:14;;;;;;;5.18;2.28;;;18.20;26.00;20.70;93666.00;;;;10314461;28;46548;-62
2022/03/04 14:21:15;;;;;;;3.25;1.80;;;18.20;26.00;20.70;93665.00;;;;10313613;28;46330;-61
2022/03/04 14:26:16;;;;;;;3.47;1.90;;;18.20;26.00;20.70;93676.00;;;;10328506;28;46878;-61
2022/03/04 14:31:16;;;;;;;4.65;2.20;;;18.20;26.00;20.60;93682.00;;;;10327884;28;48416;-61
2022/03/04 14:36:17;;;;;;;5.15;2.28;;;18.20;26.00;20.70;93676.00;;;;10328214;28;45353;-61
2022/03/04 14:41:18;;;;;;;4.40;2.10;;;18.20;26.00;20.60;93650.00;;;;10329174;28;45165;-62
2022/03/04 14:46:18;;;;;;;4.20;1.85;;;18.20;25.90;20.70;93678.00;;;;10327971;28;47013;-62
2022/03/04 14:51:20;;;;;;;3.35;1.90;;;18.20;25.90;20.60;93672.00;;;;10311575;28;47356;-62
2022/03/04 14:56:22;;;;;;;3.20;1.70;;;18.20;25.90;20.60;93674.00;;;;10337661;28;45667;-62
2022/03/04 15:01:23;;;;;;;3.83;1.73;;;18.20;25.90;20.60;93676.00;;;;10344465;28;47956;-63
2022/03/04 15:06:23;;;;;;;2.95;1.58;;;18.10;25.80;20.60;93668.00;;;;10326818;28;45387;-62
2022/03/04 15:11:24;;;;;;;4.22;2.08;;;18.10;25.80;20.60;93675.00;;;;10312804;28;46964;-62
2022/03/04 15:16:25;;;;;;;3.95;1.58;;;18.10;25.70;20.60;93674.00;;;;10327928;28;48136;-62
2022/03/04 15:21:26;;;;;;;4.45;1.60;;;18.10;25.70;20.60;93684.00;;;;10329707;28;46400;-61
2022/03/04 15:26:28;;;;;;;2.90;1.90;;;18.20;25.70;20.70;93680.00;;;;10344413;28;45532;-62
2022/03/04 15:31:28;;;;;;;3.63;1.80;;;18.10;25.40;20.60;93674.00;;;;10345607;28;47021;-60
2022/03/04 15:36:29;;;;;;;5.25;1.73;;;18.20;25.50;20.70;93685.00;;;;10344449;28;46448;-61
2022/03/04 15:41:30;;;;;;;4.55;1.70;;;18.20;25.50;20.70;93678.00;;;;10312277;28;46672;-62
2022/03/04 15:46:30;;;;;;;3.03;1.73;;;18.20;25.40;20.70;93674.00;;;;10346516;28;45504;-61
2022/03/04 15:51:31;;;;;;;3.88;2.00;;;18.20;25.40;20.70;93672.00;;;;10358963;28;45265;-61
2022/03/04 15:56:32;;;;;;;3.30;1.55;;;18.20;25.30;20.70;93665.00;;;;10359497;28;46536;-61
2022/03/04 16:01:33;;;;;;;3.92;1.67;;;18.20;25.30;20.70;93678.00;;;;10358264;28;47025;-61
2022/03/04 16:06:35;;;;;;;2.58;1.38;;;18.20;25.30;20.70;93668.00;;;;10358024;28;46304;-62
2022/03/04 16:11:37;;;;;;;4.10;1.60;;;18.20;25.30;20.70;93683.00;;;;10358517;28;45337;-61
2022/03/04 16:16:39;;;;;;;3.58;1.77;;;18.30;25.30;20.70;93680.00;;;;10330866;28;45310;-61
2022/03/04 16:21:40;;;;;;;3.30;1.60;;;18.20;25.20;20.70;93687.00;;;;10317410;28;46994;-62
2022/03/04 16:26:41;;;;;;;3.70;1.70;;;18.20;25.20;20.80;93691.00;;;;10317115;28;47929;-64
2022/03/04 16:31:42;;;;;;;3.65;1.83;;;18.30;25.30;20.80;93690.00;;;;10318412;28;47366;-66
2022/03/04 16:36:44;;;;;;;4.15;1.45;;;18.30;25.40;20.80;93684.00;;;;10322697;28;45299;-64
2022/03/04 16:41:46;;;;;;;4.25;1.55;;;18.30;25.40;20.80;93684.00;;;;10316668;28;47651;-59
2022/03/04 16:46:46;;;;;;;2.25;1.38;;;18.30;25.60;20.80;93688.00;;;;10328602;28;45282;-59
2022/03/04 16:51:47;;;;;;;2.28;1.40;;;18.30;25.60;20.80;93689.00;;;;10348326;28;47118;-59
2022/03/04 16:56:48;;;;;;;3.38;1.65;;;18.30;25.60;20.70;93690.00;;;;10347135;28;45524;-61
2022/03/04 17:01:49;;;;;;;2.70;1.38;;;18.30;25.60;20.70;93700.00;;;;10333928;28;45581;-60
2022/03/04 17:06:49;;;;;;;2.47;1.48;;;18.20;25.50;20.70;93697.00;;;;10332982;28;45484;-59
2022/03/04 17:11:50;;;;;;;2.10;1.40;;;18.20;25.50;20.70;93699.00;;;;10333793;28;45840;-59
2022/03/04 17:16:51;;;;;;;2.80;1.75;;;18.20;25.60;20.70;93719.00;;;;10347847;28;47165;-60
2022/03/04 17:21:53;;;;;;;3.72;1.55;;;18.20;25.60;20.70;93725.00;;;;10316883;28;47760;-60
2022/03/04 17:26:54;;;;;;;2.53;1.55;;;18.20;25.60;20.70;93729.00;;;;10348381;28;45317;-60
2022/03/04 17:31:55;;;;;;;1.77;1.30;;;18.20;25.60;20.70;93732.00;;;;10315575;28;48443;-60
2022/03/04 17:36:55;;;;;;;2.53;1.60;;;18.20;25.60;20.70;93720.00;;;;10347650;28;45271;-60
2022/03/04 17:41:56;;;;;;;2.40;1.30;;;18.20;25.60;20.70;93748.00;;;;10333748;28;46382;-60
2022/03/04 17:46:56;;;;;;;2.15;1.27;;;18.20;25.60;20.70;93748.00;;;;10332941;28;45571;-60
2022/03/04 17:51:59;;;;;;;4.05;1.98;;;18.20;25.60;20.70;93750.00;;;;10331979;28;45371;-60
2022/03/04 17:57:00;;;;;;;4.05;1.70;;;18.20;25.60;20.60;93746.00;;;;10331773;28;45228;-59
2022/03/04 18:02:01;;;;;;;2.88;1.70;;;18.20;25.60;20.60;93753.00;;;;10332470;28;45189;-59
2022/03/04 18:07:02;;;;;;;3.40;2.05;;;18.20;26.20;20.60;93768.00;;;;10370058;28;46802;-60
2022/03/04 18:12:03;;;;;;;4.47;2.35;;;18.20;25.60;20.60;93767.00;;;;10353387;28;46947;-60
2022/03/04 18:17:05;;;;;;;3.92;2.30;;;18.10;25.60;20.60;93772.00;;;;10353772;28;46206;-59
2022/03/04 18:22:09;;;;;;;3.40;2.20;;;18.10;25.60;20.60;93779.00;;;;10354458;28;46184;-59
2022/03/04 18:27:12;;;;;;;4.57;2.25;;;18.10;25.60;20.60;93779.00;;;;10353550;28;45252;-60
2022/03/04 18:32:14;;;;;;;3.30;2.30;;;18.10;25.60;20.60;93783.00;;;;10353473;28;46299;-60
2022/03/04 18:37:15;;;;;;;3.88;2.47;;;18.10;25.60;20.60;93767.00;;;;10352521;28;45180;-60
2022/03/04 18:42:16;;;;;;;4.15;2.65;;;18.20;25.60;20.60;93789.00;;;;10353506;28;45269;-60
2022/03/04 18:47:16;;;;;;;4.18;2.78;;;18.10;25.60;20.60;93770.00;;;;10354095;28;45239;-60
2022/03/04 18:52:17;;;;;;;4.43;2.70;;;18.10;25.60;20.60;93779.00;;;;10338882;28;46560;-61
2022/03/04 18:57:18;;;;;;;5.22;2.85;;;18.10;25.60;20.60;93786.00;;;;10345541;28;45626;-60
2022/03/04 19:02:19;;;;;;;5.10;2.90;;;18.10;25.60;20.60;93788.00;;;;10330705;28;45330;-59
2022/03/04 19:07:20;;;;;;;5.40;3.15;;;18.10;25.60;20.60;93787.00;;;;10351834;28;45379;-60
2022/03/04 19:12:20;;;;;;;4.65;2.78;;;18.10;25.50;20.60;93780.00;;;;10353160;28;47130;-60
2022/03/04 19:17:21;;;;;;;6.13;3.35;;;18.10;25.50;20.60;93785.00;;;;10334006;28;45392;-60
2022/03/04 19:22:22;;;;;;;4.38;2.65;;;18.10;25.50;20.60;93778.00;;;;10353591;28;45377;-59
2022/03/04 19:27:22;;;;;;;4.70;2.90;;;18.10;25.50;20.60;93763.00;;;;10352854;28;45188;-59
2022/03/04 19:32:23;;;;;;;5.28;3.08;;;18.10;25.50;20.60;93767.00;;;;10351207;28;45227;-60
2022/03/04 19:37:24;;;;;;;4.95;2.50;;;18.10;25.50;20.60;93775.00;;;;10335518;28;48312;-59
2022/03/04 19:42:25;;;;;;;4.55;2.80;;;18.10;25.50;20.60;93778.00;;;;10353121;28;45647;-59
2022/03/04 19:47:26;;;;;;;3.88;2.50;;;18.10;25.50;20.60;93768.00;;;;10334714;28;46883;-60
2022/03/04 19:52:26;;;;;;;4.13;2.40;;;18.10;25.50;20.60;93782.00;;;;10351068;28;46584;-60
2022/03/04 19:57:27;;;;;;;6.07;2.60;;;18.10;25.50;20.60;93793.00;;;;10351097;28;46195;-60
2022/03/04 20:02:28;;;;;;;3.42;2.28;;;18.10;25.50;20.60;93792.00;;;;10350973;28;46371;-60
2022/03/04 20:07:29;;;;;;;4.00;2.53;;;18.10;25.50;20.60;93790.00;;;;10350916;28;46534;-59
2022/03/04 20:12:30;;;;;;;3.92;2.50;;;18.10;25.40;20.60;93806.00;;;;10351868;28;45440;-59
2022/03/04 20:17:31;;;;;;;3.60;2.22;;;18.10;25.40;20.60;93784.00;;;;10350644;28;45330;-60
2022/03/04 20:22:33;;;;;;;4.47;2.78;;;18.10;25.40;20.60;93789.00;;;;10350837;28;45418;-60
2022/03/04 20:27:34;;;;;;;3.65;2.45;;;18.10;25.40;20.60;93789.00;;;;10350757;28;46349;-60
2022/03/04 20:32:36;;;;;;;4.43;2.60;;;18.10;25.40;20.60;93802.00;;;;10356789;28;45959;-60
2022/03/04 20:37:36;;;;;;;3.58;2.35;;;18.10;25.40;20.60;93808.00;;;;10357265;28;45232;-60
2022/03/04 20:42:37;;;;;;;4.13;2.65;;;18.10;25.40;20.60;93803.00;;;;10334735;28;46659;-61
2022/03/04 20:47:39;;;;;;;3.63;2.53;;;18.10;25.40;20.60;93807.00;;;;10333024;28;45145;-61
2022/03/04 20:52:40;;;;;;;3.83;2.50;;;18.10;25.40;20.60;93799.00;;;;10350654;28;47351;-60
2022/03/04 20:57:41;;;;;;;4.97;2.50;;;18.10;25.40;20.60;93807.00;;;;10332471;28;45159;-60
2022/03/04 21:02:42;;;;;;;4.55;2.65;;;18.10;25.40;20.60;93811.00;;;;10350587;28;45462;-60
2022/03/04 21:07:44;;;;;;;5.43;2.75;;;18.10;25.40;20.60;93809.00;;;;10333641;28;45326;-60
2022/03/04 21:12:44;;;;;;;4.45;2.70;;;18.10;25.40;20.60;93815.00;;;;10345197;28;45246;-61
2022/03/04 21:17:45;;;;;;;4.00;2.65;;;18.10;25.40;20.60;93817.00;;;;10347044;28;48388;-60
2022/03/04 21:22:47;;;;;;;5.00;2.70;;;18.10;25.40;20.60;93812.00;;;;10334710;28;45365;-59
2022/03/04 21:27:48;;;;;;;4.63;2.92;;;18.10;25.30;20.60;93811.00;;;;10332184;28;45236;-60
2022/03/04 21:32:49;;;;;;;4.13;2.40;;;18.10;25.30;20.60;93805.00;;;;10316211;28;47071;-60
2022/03/04 21:37:50;;;;;;;3.70;2.60;;;18.10;25.30;20.50;93806.00;;;;10332767;28;45274;-60
2022/03/04 21:42:51;;;;;;;4.28;2.95;;;18.10;25.20;20.50;93789.00;;;;10332811;28;45280;-59
2022/03/04 21:47:54;;;;;;;3.80;2.50;;;18.10;25.20;20.50;93812.00;;;;10359516;28;45351;-61
2022/03/04 21:52:54;;;;;;;4.60;2.72;;;18.00;25.20;20.50;93797.00;;;;10351364;28;46353;-59
2022/03/04 21:57:55;;;;;;;4.28;2.83;;;18.00;25.10;20.50;93795.00;;;;10356007;28;45180;-61
2022/03/04 22:02:57;;;;;;;4.53;2.92;;;18.00;25.20;20.50;93809.00;;;;10354665;28;45287;-61
2022/03/04 22:07:58;;;;;;;4.40;2.72;;;18.00;25.20;20.50;93808.00;;;;10337787;28;48241;-61
2022/03/04 22:12:59;;;;;;;4.57;2.90;;;18.00;25.20;20.50;93809.00;;;;10353876;28;45580;-60